Time;durP1;ratioP1;P1;durP2;ratioP2;P2;SDS_P1;SDS_P2;PMS_P1;PMS_P2;Temp;Humidity;BMP_temperature;BMP_pressure;BME280_temperature;BME280_humidity;BME280_pressure;Samples;Min_cycle;Max_cycle;Signal;HPM_P1;HPM_P2
2024/01/10 00:02:23;;;;;;;21.55;10.70;;;;;;;;;;6163824;23;20056;-80
2024/01/10 00:04:50;;;;;;;20.13;10.02;;;;;;;;;;6164750;23;20025;-79
2024/01/10 00:07:16;;;;;;;17.25;10.25;;;;;;;;;;6163769;23;20025;-80
2024/01/10 00:09:42;;;;;;;20.80;10.95;;;;;;;;;;6168500;23;20022;-80
2024/01/10 00:12:09;;;;;;;19.50;9.90;;;;;;;;;;6168359;23;20044;-80
2024/01/10 00:14:35;;;;;;;22.02;10.15;;;;;;;;;;6168703;23;20051;-78
2024/01/10 00:17:02;;;;;;;21.73;10.80;;;;;;;;;;6163612;23;20121;-80
2024/01/10 00:19:30;;;;;;;21.65;10.27;;;;;;;;;;6161590;23;20017;-81
2024/01/10 00:21:56;;;;;;;21.42;10.20;;;;;;;;;;6161847;23;20026;-79
2024/01/10 00:24:22;;;;;;;22.52;9.95;;;;;;;;;;6164670;23;20025;-81
2024/01/10 00:26:48;;;;;;;19.85;9.95;;;;;;;;;;6165338;23;20044;-81
2024/01/10 00:29:14;;;;;;;20.92;10.25;;;;;;;;;;6165491;23;20017;-80
2024/01/10 00:31:41;;;;;;;21.90;10.95;;;;;;;;;;6165256;23;20021;-81
2024/01/10 00:34:07;;;;;;;21.00;10.70;;;;;;;;;;6167335;23;20026;-79
2024/01/10 00:36:35;;;;;;;20.10;10.15;;;;;;;;;;6168175;23;20026;-80
2024/01/10 00:39:02;;;;;;;18.60;10.15;;;;;;;;;;6167932;23;20049;-80
2024/01/10 00:41:28;;;;;;;21.60;10.23;;;;;;;;;;6167613;23;20036;-81
2024/01/10 00:43:55;;;;;;;20.40;10.68;;;;;;;;;;6168306;23;20017;-80
2024/01/10 00:46:21;;;;;;;18.10;9.43;;;;;;;;;;6163017;23;20061;-79
2024/01/10 00:48:47;;;;;;;18.95;10.63;;;;;;;;;;6162207;23;20052;-79
2024/01/10 00:51:14;;;;;;;18.45;10.23;;;;;;;;;;6163158;23;20022;-79
2024/01/10 00:53:42;;;;;;;16.83;9.90;;;;;;;;;;6164451;23;20052;-80
2024/01/10 00:56:08;;;;;;;21.00;10.30;;;;;;;;;;6163561;23;20025;-80
2024/01/10 00:58:36;;;;;;;21.25;10.65;;;;;;;;;;6164299;23;20025;-79
2024/01/10 01:01:02;;;;;;;20.33;9.82;;;;;;;;;;6162356;23;20057;-79
2024/01/10 01:03:29;;;;;;;19.90;10.48;;;;;;;;;;6162718;23;20026;-79
2024/01/10 01:05:55;;;;;;;18.85;9.82;;;;;;;;;;6162414;23;20056;-77
2024/01/10 01:08:21;;;;;;;20.63;9.68;;;;;;;;;;6162220;23;20029;-79
2024/01/10 01:10:49;;;;;;;20.15;10.30;;;;;;;;;;6163254;23;20036;-78
2024/01/10 01:13:16;;;;;;;19.48;10.18;;;;;;;;;;6163789;23;20056;-79
2024/01/10 01:15:42;;;;;;;21.45;10.70;;;;;;;;;;6163361;23;20052;-82
2024/01/10 01:18:09;;;;;;;20.85;10.65;;;;;;;;;;6164760;23;20033;-80
2024/01/10 01:20:36;;;;;;;21.55;10.07;;;;;;;;;;6163977;23;20021;-80
2024/01/10 01:23:02;;;;;;;21.52;10.90;;;;;;;;;;6163947;23;20049;-80
2024/01/10 01:25:29;;;;;;;20.10;11.05;;;;;;;;;;6161797;23;20055;-80
2024/01/10 01:27:56;;;;;;;21.08;10.93;;;;;;;;;;6161347;23;20163;-77
2024/01/10 01:30:23;;;;;;;21.17;10.98;;;;;;;;;;6161481;23;20060;-81
2024/01/10 01:32:49;;;;;;;19.73;10.05;;;;;;;;;;6162896;23;20026;-79
2024/01/10 01:35:21;;;;;;;20.25;11.18;;;;;;;;;;6161748;23;20025;-79
2024/01/10 01:37:47;;;;;;;19.38;10.45;;;;;;;;;;6161931;23;20052;-81
2024/01/10 01:40:14;;;;;;;20.75;10.35;;;;;;;;;;6161577;23;20497;-80
2024/01/10 01:42:40;;;;;;;18.63;9.95;;;;;;;;;;6166213;23;20026;-79
2024/01/10 01:45:08;;;;;;;23.48;11.00;;;;;;;;;;6172510;23;20025;-78
2024/01/10 01:47:35;;;;;;;19.67;9.85;;;;;;;;;;6176518;23;20025;-79
2024/01/10 01:50:00;;;;;;;18.25;10.07;;;;;;;;;;6166317;23;20026;-80
2024/01/10 01:52:27;;;;;;;19.15;9.25;;;;;;;;;;6165500;23;20017;-80
2024/01/10 01:54:53;;;;;;;21.13;10.20;;;;;;;;;;6164630;23;20025;-82
2024/01/10 01:57:20;;;;;;;19.70;9.90;;;;;;;;;;6163938;23;20025;-80
2024/01/10 01:59:46;;;;;;;22.63;11.00;;;;;;;;;;6164738;23;20049;-79
2024/01/10 02:02:16;;;;;;;23.00;11.48;;;;;;;;;;6164330;23;20025;-80
2024/01/10 02:04:43;;;;;;;21.48;10.73;;;;;;;;;;6165047;23;20048;-81
2024/01/10 02:07:09;;;;;;;19.80;10.30;;;;;;;;;;6164684;23;20025;-79
2024/01/10 02:09:36;;;;;;;20.50;10.65;;;;;;;;;;6163468;23;20048;-79
2024/01/10 02:12:03;;;;;;;25.27;12.32;;;;;;;;;;6167758;23;20022;-79
2024/01/10 02:14:32;;;;;;;20.33;11.05;;;;;;;;;;6163943;23;20120;-78
2024/01/10 02:16:58;;;;;;;24.38;11.52;;;;;;;;;;6164281;23;20073;-78
2024/01/10 02:19:29;;;;;;;22.90;11.80;;;;;;;;;;6168295;23;20072;-79
2024/01/10 02:21:55;;;;;;;20.25;11.40;;;;;;;;;;6170878;23;20505;-77
2024/01/10 02:24:22;;;;;;;22.30;11.20;;;;;;;;;;6170075;23;20040;-79
2024/01/10 02:26:50;;;;;;;22.67;10.93;;;;;;;;;;6171690;23;20033;-78
2024/01/10 02:29:16;;;;;;;24.38;10.77;;;;;;;;;;6169819;23;20065;-78
2024/01/10 02:31:42;;;;;;;20.52;10.85;;;;;;;;;;6171903;23;20025;-79
2024/01/10 02:34:08;;;;;;;22.60;11.15;;;;;;;;;;6171475;23;20021;-78
2024/01/10 02:36:34;;;;;;;20.67;10.38;;;;;;;;;;6169808;23;20079;-79
2024/01/10 02:39:01;;;;;;;21.05;11.25;;;;;;;;;;6168237;23;20048;-79
2024/01/10 02:41:28;;;;;;;19.45;10.30;;;;;;;;;;6170980;23;20026;-79
2024/01/10 02:43:58;;;;;;;21.92;11.38;;;;;;;;;;6170647;23;20030;-78
2024/01/10 02:46:27;;;;;;;23.00;11.48;;;;;;;;;;6167576;23;20104;-81
2024/01/10 02:48:53;;;;;;;18.98;10.63;;;;;;;;;;6166448;23;20064;-80
2024/01/10 02:51:20;;;;;;;23.52;10.85;;;;;;;;;;6170446;23;20052;-78
2024/01/10 02:53:46;;;;;;;20.83;11.27;;;;;;;;;;6175518;23;20026;-79
2024/01/10 02:56:16;;;;;;;21.00;10.43;;;;;;;;;;6174465;23;20032;-79
2024/01/10 02:58:42;;;;;;;21.23;11.68;;;;;;;;;;6168863;23;20026;-79
2024/01/10 03:01:10;;;;;;;23.20;10.60;;;;;;;;;;6161432;23;20025;-80
2024/01/10 03:03:36;;;;;;;20.20;10.95;;;;;;;;;;6161225;23;20052;-79
2024/01/10 03:06:03;;;;;;;22.92;10.73;;;;;;;;;;6162637;23;20025;-79
2024/01/10 03:08:29;;;;;;;19.42;10.68;;;;;;;;;;6164241;23;20025;-79
2024/01/10 03:10:56;;;;;;;25.08;11.02;;;;;;;;;;6161392;23;20401;-78
2024/01/10 03:13:22;;;;;;;18.17;9.63;;;;;;;;;;6159926;23;20073;-80
2024/01/10 03:15:48;;;;;;;20.75;10.27;;;;;;;;;;6159486;23;20053;-80
2024/01/10 03:18:16;;;;;;;21.33;11.23;;;;;;;;;;6159663;23;20051;-80
2024/01/10 03:20:43;;;;;;;20.92;10.38;;;;;;;;;;6159767;23;20093;-80
2024/01/10 03:23:09;;;;;;;22.90;10.55;;;;;;;;;;6159451;23;20026;-80
2024/01/10 03:25:35;;;;;;;19.30;10.27;;;;;;;;;;6159325;23;20084;-81
2024/01/10 03:28:02;;;;;;;20.80;10.32;;;;;;;;;;6159975;23;20082;-80
2024/01/10 03:30:29;;;;;;;19.50;10.35;;;;;;;;;;6159253;23;20024;-80
2024/01/10 03:32:55;;;;;;;18.08;9.88;;;;;;;;;;6159203;23;20036;-78
2024/01/10 03:35:23;;;;;;;22.02;11.27;;;;;;;;;;6159679;23;20029;-79
2024/01/10 03:37:49;;;;;;;20.38;11.25;;;;;;;;;;6160700;23;20048;-78
2024/01/10 03:40:16;;;;;;;22.50;10.93;;;;;;;;;;6163901;23;20063;-79
2024/01/10 03:45:39;;;;;;;19.67;10.35;;;;;;;;;;6189836;23;20059;-85
2024/01/10 03:48:16;;;;;;;18.38;10.43;;;;;;;;;;6189231;23;20032;-84
2024/01/10 03:50:52;;;;;;;19.52;10.02;;;;;;;;;;6189339;23;20051;-80
2024/01/10 03:53:23;;;;;;;22.75;10.55;;;;;;;;;;6160839;23;20476;-82
2024/01/10 03:55:53;;;;;;;18.75;10.13;;;;;;;;;;6160460;23;20027;-82
2024/01/10 04:01:10;;;;;;;21.70;11.18;;;;;;;;;;6159657;23;20080;-82
2024/01/10 04:03:45;;;;;;;19.25;9.82;;;;;;;;;;6161906;23;20026;-82
2024/01/10 04:06:15;;;;;;;22.23;10.98;;;;;;;;;;6161096;23;20097;-81
2024/01/10 04:09:09;;;;;;;23.95;10.32;;;;;;;;;;6160232;23;20469;-82
2024/01/10 04:11:56;;;;;;;;;;;;;;;;;;;;;
2024/01/10 04:14:27;;;;;;;20.52;10.10;;;;;;;;;;6133182;23;20072;-81
2024/01/10 04:17:11;;;;;;;23.08;11.35;;;;;;;;;;6161018;23;20022;-82
2024/01/10 04:19:40;;;;;;;23.85;10.85;;;;;;;;;;6162643;23;20027;-81
2024/01/10 04:25:01;;;;;;;20.88;10.90;;;;;;;;;;6139978;23;20029;-81
2024/01/10 04:27:38;;;;;;;22.52;10.75;;;;;;;;;;6160010;23;20100;-80
2024/01/10 04:30:10;;;;;;;21.63;10.20;;;;;;;;;;6158119;23;20053;-81
2024/01/10 04:32:37;;;;;;;19.30;10.70;;;;;;;;;;6159414;23;20029;-82
2024/01/10 04:35:04;;;;;;;20.65;10.80;;;;;;;;;;6159817;23;20257;-82
2024/01/10 04:37:38;;;;;;;29.42;11.45;;;;;;;;;;6160522;23;20025;-83
2024/01/10 04:40:05;;;;;;;17.13;9.55;;;;;;;;;;6160200;23;20075;-82
2024/01/10 04:42:32;;;;;;;22.25;9.90;;;;;;;;;;6159547;23;20026;-82
2024/01/10 04:45:01;;;;;;;19.88;10.30;;;;;;;;;;6159427;23;20037;-83
2024/01/10 04:47:29;;;;;;;20.85;10.63;;;;;;;;;;6159359;23;20028;-81
2024/01/10 04:50:16;;;;;;;18.17;9.60;;;;;;;;;;6160345;23;20026;-81
2024/01/10 04:52:50;;;;;;;18.77;10.27;;;;;;;;;;6159459;23;20017;-82
2024/01/10 04:55:19;;;;;;;20.88;10.60;;;;;;;;;;6159990;23;20032;-80
2024/01/10 04:57:48;;;;;;;20.95;10.23;;;;;;;;;;6158322;23;20026;-80
2024/01/10 05:00:16;;;;;;;16.58;9.32;;;;;;;;;;6158519;23;20017;-81
2024/01/10 05:02:47;;;;;;;17.55;9.93;;;;;;;;;;6158955;23;20030;-80
2024/01/10 05:05:14;;;;;;;20.73;9.60;;;;;;;;;;6164223;23;20021;-84
2024/01/10 05:07:42;;;;;;;22.10;10.45;;;;;;;;;;6163142;23;20025;-81
2024/01/10 05:10:33;;;;;;;19.63;10.48;;;;;;;;;;6161455;23;20401;-81
2024/01/10 05:13:12;;;;;;;23.45;11.63;;;;;;;;;;6161392;23;20049;-81
2024/01/10 05:15:44;;;;;;;21.77;11.05;;;;;;;;;;6162226;23;20021;-82
2024/01/10 05:18:14;;;;;;;23.58;11.02;;;;;;;;;;6162232;23;20032;-81
2024/01/10 05:20:41;;;;;;;22.02;11.38;;;;;;;;;;6162334;23;20025;-79
2024/01/10 05:23:07;;;;;;;31.70;13.20;;;;;;;;;;6161839;23;20025;-80
2024/01/10 05:25:37;;;;;;;26.58;13.18;;;;;;;;;;6162677;23;20076;-80
2024/01/10 05:28:08;;;;;;;22.67;12.05;;;;;;;;;;6165081;23;20017;-80
2024/01/10 05:30:39;;;;;;;24.40;12.30;;;;;;;;;;6167678;23;20029;-80
2024/01/10 05:33:07;;;;;;;23.77;11.95;;;;;;;;;;6166943;23;20029;-81
2024/01/10 05:35:36;;;;;;;26.83;11.95;;;;;;;;;;6162952;23;20032;-81
2024/01/10 05:38:03;;;;;;;24.48;11.90;;;;;;;;;;6162397;23;20022;-81
2024/01/10 05:40:32;;;;;;;27.20;13.02;;;;;;;;;;6161336;23;20458;-80
2024/01/10 05:43:01;;;;;;;22.10;11.88;;;;;;;;;;6161125;23;20373;-80
2024/01/10 05:45:29;;;;;;;27.35;12.00;;;;;;;;;;6161442;23;20025;-80
2024/01/10 05:47:55;;;;;;;24.63;11.75;;;;;;;;;;6162269;23;20036;-81
2024/01/10 05:50:25;;;;;;;22.50;12.40;;;;;;;;;;6161959;23;20397;-81
2024/01/10 05:52:56;;;;;;;24.15;12.10;;;;;;;;;;6162024;23;20025;-80
2024/01/10 05:55:25;;;;;;;22.85;12.02;;;;;;;;;;6161250;23;20036;-80
2024/01/10 06:01:17;;;;;;;20.30;10.88;;;;;;;;;;6105866;23;20469;-81
2024/01/10 06:03:43;;;;;;;25.63;12.40;;;;;;;;;;6163743;23;20076;-82
2024/01/10 06:06:15;;;;;;;21.77;11.07;;;;;;;;;;6162167;23;20025;-83
2024/01/10 06:11:31;;;;;;;19.38;10.70;;;;;;;;;;6140719;23;20124;-84
2024/01/10 06:14:22;;;;;;;24.55;11.85;;;;;;;;;;6162691;23;20405;-82
2024/01/10 06:16:59;;;;;;;21.95;11.45;;;;;;;;;;6042988;23;20051;-83
2024/01/10 06:25:26;;;;;;;20.90;11.15;;;;;;;;;;6159646;23;20025;-83
2024/01/10 06:28:06;;;;;;;22.30;11.40;;;;;;;;;;6161579;23;20025;-84
2024/01/10 06:30:32;;;;;;;20.58;11.02;;;;;;;;;;6161971;23;20059;-82
2024/01/10 06:33:00;;;;;;;21.75;11.13;;;;;;;;;;6161948;23;20025;-80
2024/01/10 06:35:27;;;;;;;22.85;11.65;;;;;;;;;;6164583;23;20032;-81
2024/01/10 06:37:53;;;;;;;24.48;10.57;;;;;;;;;;6165549;23;20033;-80
2024/01/10 06:40:21;;;;;;;22.40;12.60;;;;;;;;;;6162506;23;20045;-82
2024/01/10 06:42:48;;;;;;;24.02;12.45;;;;;;;;;;6162542;23;20021;-80
2024/01/10 06:45:16;;;;;;;28.83;12.77;;;;;;;;;;6162519;23;20036;-81
2024/01/10 06:47:42;;;;;;;22.40;11.93;;;;;;;;;;6164015;23;20101;-80
2024/01/10 06:50:11;;;;;;;22.55;11.35;;;;;;;;;;6166354;23;20052;-80
2024/01/10 06:52:37;;;;;;;26.80;12.20;;;;;;;;;;6165384;23;20025;-80
2024/01/10 06:55:05;;;;;;;23.30;11.60;;;;;;;;;;6161289;23;20444;-80
2024/01/10 06:57:32;;;;;;;22.77;11.30;;;;;;;;;;6161552;23;20405;-80
2024/01/10 06:59:58;;;;;;;26.55;12.98;;;;;;;;;;6161570;23;20026;-80
2024/01/10 07:02:25;;;;;;;22.95;11.98;;;;;;;;;;6161052;23;20026;-82
2024/01/10 07:04:53;;;;;;;24.45;12.52;;;;;;;;;;6161064;23;20025;-81
2024/01/10 07:07:21;;;;;;;26.25;12.35;;;;;;;;;;6160672;23;20025;-81
2024/01/10 07:09:50;;;;;;;25.23;12.70;;;;;;;;;;6160813;23;20055;-81
2024/01/10 07:12:17;;;;;;;27.83;12.85;;;;;;;;;;6160648;23;20097;-81
2024/01/10 07:14:43;;;;;;;25.98;13.35;;;;;;;;;;6161117;23;20049;-82
2024/01/10 07:17:10;;;;;;;24.23;11.50;;;;;;;;;;6164004;23;20048;-81
2024/01/10 07:19:37;;;;;;;21.38;11.75;;;;;;;;;;6165364;23;20100;-81
2024/01/10 07:22:03;;;;;;;21.42;11.98;;;;;;;;;;6162825;23;20072;-81
2024/01/10 07:24:34;;;;;;;22.27;12.27;;;;;;;;;;6166031;23;20026;-80
2024/01/10 07:27:01;;;;;;;23.55;12.45;;;;;;;;;;6161691;23;20037;-82
2024/01/10 07:29:27;;;;;;;17.67;10.70;;;;;;;;;;6162663;23;20105;-80
2024/01/10 07:31:54;;;;;;;25.92;11.95;;;;;;;;;;6162771;23;20017;-80
2024/01/10 07:34:21;;;;;;;21.63;11.63;;;;;;;;;;6161528;23;20069;-81
2024/01/10 07:36:48;;;;;;;24.25;11.68;;;;;;;;;;6162695;23;20045;-80
2024/01/10 07:39:18;;;;;;;24.38;13.18;;;;;;;;;;6163310;23;20059;-80
2024/01/10 07:41:47;;;;;;;27.77;14.35;;;;;;;;;;6162856;23;20080;-80
2024/01/10 07:44:14;;;;;;;29.55;12.05;;;;;;;;;;6164578;23;20032;-79
2024/01/10 07:46:41;;;;;;;26.88;12.57;;;;;;;;;;6165383;23;20066;-80
2024/01/10 07:49:08;;;;;;;22.25;11.75;;;;;;;;;;6165222;23;20025;-80
2024/01/10 07:51:35;;;;;;;29.25;13.93;;;;;;;;;;6166865;23;20077;-80
2024/01/10 07:54:02;;;;;;;25.67;12.45;;;;;;;;;;6159897;23;20021;-79
2024/01/10 07:56:29;;;;;;;24.95;12.05;;;;;;;;;;6158402;23;20078;-79
2024/01/10 07:58:57;;;;;;;23.88;11.52;;;;;;;;;;6157610;23;20021;-78
2024/01/10 08:01:27;;;;;;;25.15;11.88;;;;;;;;;;6167277;23;20033;-79
2024/01/10 08:03:53;;;;;;;26.50;12.10;;;;;;;;;;6173819;23;20025;-81
2024/01/10 08:06:20;;;;;;;22.98;12.05;;;;;;;;;;6167529;23;20036;-82
2024/01/10 08:08:46;;;;;;;26.20;12.73;;;;;;;;;;6165015;23;20032;-84
2024/01/10 08:11:13;;;;;;;20.42;11.05;;;;;;;;;;6161931;23;20021;-82
2024/01/10 08:13:40;;;;;;;29.13;12.57;;;;;;;;;;6166583;23;20025;-82
2024/01/10 08:16:12;;;;;;;27.00;13.07;;;;;;;;;;6157441;23;20017;-80
2024/01/10 08:18:39;;;;;;;33.40;12.65;;;;;;;;;;6159491;23;20021;-80
2024/01/10 08:21:08;;;;;;;21.02;10.88;;;;;;;;;;6158515;23;20073;-80
2024/01/10 08:23:35;;;;;;;23.52;11.35;;;;;;;;;;6163190;23;20218;-82
2024/01/10 08:26:01;;;;;;;20.83;10.57;;;;;;;;;;6165272;23;20145;-81
2024/01/10 08:28:28;;;;;;;24.27;10.77;;;;;;;;;;6168752;23;20033;-81
2024/01/10 08:30:54;;;;;;;24.88;11.30;;;;;;;;;;6168204;23;20077;-81
2024/01/10 08:33:22;;;;;;;27.05;11.63;;;;;;;;;;6162812;23;20053;-81
2024/01/10 08:35:48;;;;;;;21.02;10.23;;;;;;;;;;6160464;23;20057;-81
2024/01/10 08:38:15;;;;;;;27.58;11.13;;;;;;;;;;6160755;23;20053;-81
2024/01/10 08:40:44;;;;;;;20.20;10.57;;;;;;;;;;6160230;23;20076;-81
2024/01/10 08:43:10;;;;;;;19.95;10.52;;;;;;;;;;6158513;23;20032;-80
2024/01/10 08:45:36;;;;;;;22.77;12.88;;;;;;;;;;6159834;23;20025;-81
2024/01/10 08:48:11;;;;;;;22.92;11.30;;;;;;;;;;6161063;23;20548;-79
2024/01/10 08:50:39;;;;;;;28.10;11.75;;;;;;;;;;6159984;23;20030;-81
2024/01/10 08:53:06;;;;;;;21.40;11.57;;;;;;;;;;6159801;23;20060;-81
2024/01/10 08:55:33;;;;;;;22.00;11.68;;;;;;;;;;6161676;23;20078;-81
2024/01/10 08:58:00;;;;;;;22.52;11.73;;;;;;;;;;6161150;23;20018;-80
2024/01/10 09:00:27;;;;;;;28.50;11.95;;;;;;;;;;6162110;23;20044;-81
2024/01/10 09:02:53;;;;;;;25.60;12.57;;;;;;;;;;6161139;23;20024;-80
2024/01/10 09:05:21;;;;;;;25.63;11.85;;;;;;;;;;6161061;23;20386;-81
2024/01/10 09:07:49;;;;;;;22.05;11.07;;;;;;;;;;6160953;23;20022;-81
2024/01/10 09:10:15;;;;;;;24.15;12.25;;;;;;;;;;6161073;23;20036;-80
2024/01/10 09:12:45;;;;;;;26.50;12.32;;;;;;;;;;6162111;23;20022;-80
2024/01/10 09:15:14;;;;;;;30.30;12.95;;;;;;;;;;6163473;23;20045;-81
2024/01/10 09:17:40;;;;;;;28.10;14.43;;;;;;;;;;6162562;23;20033;-81
2024/01/10 09:20:10;;;;;;;29.92;15.68;;;;;;;;;;6162127;23;20037;-82
2024/01/10 09:22:37;;;;;;;29.52;16.15;;;;;;;;;;6161626;23;20025;-81
2024/01/10 09:25:05;;;;;;;36.75;17.67;;;;;;;;;;6161055;23;20061;-81
2024/01/10 09:27:33;;;;;;;35.35;17.33;;;;;;;;;;6161722;23;20041;-80
2024/01/10 09:29:59;;;;;;;30.88;17.48;;;;;;;;;;6162006;23;20025;-80
2024/01/10 09:32:26;;;;;;;29.88;16.20;;;;;;;;;;6161684;23;20045;-80
2024/01/10 09:34:52;;;;;;;29.27;16.15;;;;;;;;;;6160851;23;20139;-80
2024/01/10 09:37:19;;;;;;;32.83;16.02;;;;;;;;;;6161552;23;20057;-80
2024/01/10 09:39:45;;;;;;;35.00;16.25;;;;;;;;;;6160877;23;20025;-84
2024/01/10 09:42:15;;;;;;;32.90;15.85;;;;;;;;;;6161420;23;20049;-79
2024/01/10 09:47:12;;;;;;;34.58;15.65;;;;;;;;;;6196145;23;20040;-81
2024/01/10 09:49:38;;;;;;;33.13;16.42;;;;;;;;;;6198878;23;20130;-80
2024/01/10 09:52:05;;;;;;;35.80;17.27;;;;;;;;;;6197102;23;20049;-80
2024/01/10 09:54:32;;;;;;;80.95;34.30;;;;;;;;;;6172558;23;20433;-80
2024/01/10 09:56:58;;;;;;;43.45;21.50;;;;;;;;;;6163741;23;20072;-80
2024/01/10 09:59:26;;;;;;;34.50;16.35;;;;;;;;;;6170702;23;20025;-81
2024/01/10 10:01:53;;;;;;;31.52;16.60;;;;;;;;;;6173084;23;20045;-80
2024/01/10 10:04:21;;;;;;;35.08;16.75;;;;;;;;;;6172672;23;20029;-80
2024/01/10 10:06:47;;;;;;;33.88;17.17;;;;;;;;;;6173213;23;20025;-80
2024/01/10 10:09:15;;;;;;;34.15;17.02;;;;;;;;;;6173683;23;20073;-80
2024/01/10 10:11:41;;;;;;;27.10;15.18;;;;;;;;;;6173229;23;20331;-80
2024/01/10 10:14:17;;;;;;;32.00;15.73;;;;;;;;;;6172859;23;20025;-79
2024/01/10 10:16:45;;;;;;;32.35;15.70;;;;;;;;;;6173095;23;20029;-80
2024/01/10 10:19:23;;;;;;;27.20;14.98;;;;;;;;;;6171623;23;20089;-81
2024/01/10 10:21:52;;;;;;;28.40;14.55;;;;;;;;;;6173750;23;20088;-80
2024/01/10 10:24:18;;;;;;;34.17;14.88;;;;;;;;;;6173449;23;20070;-81
2024/01/10 10:26:44;;;;;;;33.65;15.45;;;;;;;;;;6173124;23;20021;-81
2024/01/10 10:29:11;;;;;;;26.80;14.27;;;;;;;;;;6165999;23;20026;-80
2024/01/10 10:31:37;;;;;;;28.95;15.43;;;;;;;;;;6166115;23;20029;-80
2024/01/10 10:34:06;;;;;;;30.00;14.25;;;;;;;;;;6163887;23;20033;-81
2024/01/10 10:36:33;;;;;;;26.58;14.00;;;;;;;;;;6165623;23;20100;-80
2024/01/10 10:39:01;;;;;;;28.67;13.80;;;;;;;;;;6167148;23;20025;-79
2024/01/10 10:41:28;;;;;;;34.95;13.80;;;;;;;;;;6164557;23;20024;-80
2024/01/10 10:43:55;;;;;;;28.02;15.10;;;;;;;;;;6164751;23;20029;-80
2024/01/10 10:46:24;;;;;;;32.58;15.02;;;;;;;;;;6167845;23;20085;-79
2024/01/10 10:48:50;;;;;;;30.90;15.52;;;;;;;;;;6177744;23;20022;-82
2024/01/10 10:51:25;;;;;;;28.85;15.35;;;;;;;;;;6179652;23;20097;-80
2024/01/10 10:53:51;;;;;;;36.28;14.52;;;;;;;;;;6179598;23;20013;-79
2024/01/10 10:56:18;;;;;;;29.67;14.93;;;;;;;;;;6172469;23;20014;-83
2024/01/10 10:58:44;;;;;;;30.30;14.93;;;;;;;;;;6181170;23;20045;-82
2024/01/10 11:01:12;;;;;;;29.13;15.50;;;;;;;;;;6180645;23;20009;-80
2024/01/10 11:03:41;;;;;;;27.25;14.07;;;;;;;;;;6181251;23;20014;-82
2024/01/10 11:06:11;;;;;;;30.58;16.00;;;;;;;;;;6180819;23;20020;-81
2024/01/10 11:08:41;;;;;;;27.90;14.88;;;;;;;;;;6181081;23;20021;-81
2024/01/10 11:11:13;;;;;;;31.38;15.05;;;;;;;;;;6179254;23;20046;-82
2024/01/10 11:13:51;;;;;;;28.93;16.10;;;;;;;;;;6175786;23;20458;-80
2024/01/10 11:16:48;;;;;;;32.03;15.23;;;;;;;;;;6176688;23;20077;-80
2024/01/10 11:19:33;;;;;;;34.70;15.82;;;;;;;;;;6108097;23;20044;-79
2024/01/10 11:22:05;;;;;;;30.20;15.48;;;;;;;;;;6174675;23;20018;-80
2024/01/10 11:24:33;;;;;;;29.80;14.50;;;;;;;;;;6171225;23;20021;-80
2024/01/10 11:27:11;;;;;;;31.48;15.05;;;;;;;;;;6173379;23;20021;-81
2024/01/10 11:29:38;;;;;;;30.70;13.73;;;;;;;;;;6172510;23;20040;-79
2024/01/10 11:32:05;;;;;;;31.83;14.50;;;;;;;;;;6177115;23;20029;-80
2024/01/10 11:34:32;;;;;;;28.73;14.70;;;;;;;;;;6174253;23;20021;-80
2024/01/10 11:37:11;;;;;;;41.67;15.10;;;;;;;;;;6174564;23;20025;-80
2024/01/10 11:39:41;;;;;;;29.88;14.10;;;;;;;;;;6173118;23;20053;-80
2024/01/10 11:42:09;;;;;;;26.52;13.43;;;;;;;;;;6170878;23;20017;-80
2024/01/10 11:44:36;;;;;;;33.40;15.15;;;;;;;;;;6168792;23;20031;-81
2024/01/10 11:47:05;;;;;;;28.27;13.70;;;;;;;;;;6163368;23;20112;-79
2024/01/10 11:49:31;;;;;;;24.88;12.88;;;;;;;;;;6162471;23;20033;-81
2024/01/10 11:52:00;;;;;;;30.70;13.13;;;;;;;;;;6163625;23;20017;-81
2024/01/10 11:54:36;;;;;;;30.85;14.13;;;;;;;;;;6163560;23;20025;-80
2024/01/10 11:57:04;;;;;;;28.85;13.88;;;;;;;;;;6162642;23;20050;-82
2024/01/10 11:59:32;;;;;;;28.05;14.25;;;;;;;;;;6162887;23;20033;-81
2024/01/10 12:01:59;;;;;;;27.08;14.27;;;;;;;;;;6163103;23;20070;-81
2024/01/10 12:04:29;;;;;;;30.55;13.90;;;;;;;;;;6163459;23;20053;-80
2024/01/10 12:06:56;;;;;;;31.02;13.80;;;;;;;;;;6166015;23;20061;-81
2024/01/10 12:09:24;;;;;;;27.58;13.52;;;;;;;;;;6162967;23;20454;-81
2024/01/10 12:11:51;;;;;;;27.80;13.60;;;;;;;;;;6163779;23;20017;-79
2024/01/10 12:14:20;;;;;;;28.23;13.45;;;;;;;;;;6165845;23;20025;-81
2024/01/10 12:16:53;;;;;;;30.45;13.90;;;;;;;;;;6169831;23;20029;-81
2024/01/10 12:19:19;;;;;;;30.13;14.55;;;;;;;;;;6168200;23;20466;-80
2024/01/10 12:21:47;;;;;;;27.00;14.68;;;;;;;;;;6167648;23;20025;-81
2024/01/10 12:24:13;;;;;;;31.45;14.77;;;;;;;;;;6167236;23;20036;-81
2024/01/10 12:26:44;;;;;;;28.67;15.05;;;;;;;;;;6167313;23;20021;-83
2024/01/10 12:29:14;;;;;;;32.40;14.93;;;;;;;;;;6168761;23;20362;-81
2024/01/10 12:31:44;;;;;;;28.95;13.38;;;;;;;;;;6168213;23;20022;-81
2024/01/10 12:34:10;;;;;;;26.00;13.20;;;;;;;;;;6167735;23;20104;-80
2024/01/10 12:36:37;;;;;;;32.28;13.93;;;;;;;;;;6166256;23;20026;-81
2024/01/10 12:39:04;;;;;;;28.58;13.50;;;;;;;;;;6166030;23;20419;-82
2024/01/10 12:41:30;;;;;;;28.95;14.68;;;;;;;;;;6166031;23;20021;-79
2024/01/10 12:43:57;;;;;;;27.23;14.05;;;;;;;;;;6164831;23;20080;-82
2024/01/10 12:46:24;;;;;;;29.27;14.70;;;;;;;;;;6163858;23;20026;-81
2024/01/10 12:49:01;;;;;;;32.80;15.38;;;;;;;;;;6165540;23;20080;-81
2024/01/10 12:51:29;;;;;;;32.90;14.38;;;;;;;;;;6165846;23;20026;-80
2024/01/10 12:53:56;;;;;;;29.17;14.43;;;;;;;;;;6165994;23;20028;-81
2024/01/10 12:56:22;;;;;;;28.00;13.60;;;;;;;;;;6165582;23;20025;-80
2024/01/10 12:58:49;;;;;;;26.08;12.68;;;;;;;;;;6164655;23;20022;-81
2024/01/10 13:01:15;;;;;;;29.25;14.18;;;;;;;;;;6163458;23;20033;-82
2024/01/10 13:03:42;;;;;;;28.05;14.52;;;;;;;;;;6163153;23;20022;-80
2024/01/10 13:06:13;;;;;;;29.90;15.10;;;;;;;;;;6165957;23;20053;-79
2024/01/10 13:08:50;;;;;;;31.52;15.30;;;;;;;;;;6168886;23;20025;-82
2024/01/10 13:11:16;;;;;;;34.15;15.93;;;;;;;;;;6174199;23;20088;-80
2024/01/10 13:13:58;;;;;;;29.35;15.10;;;;;;;;;;6180200;23;20017;-80
2024/01/10 13:16:25;;;;;;;30.88;13.75;;;;;;;;;;6172036;23;20048;-79
2024/01/10 13:18:53;;;;;;;32.00;14.40;;;;;;;;;;6166709;23;20073;-78
2024/01/10 13:21:21;;;;;;;35.78;15.25;;;;;;;;;;6162866;23;20183;-80
2024/01/10 13:23:59;;;;;;;28.67;13.90;;;;;;;;;;6163419;23;20093;-80
2024/01/10 13:26:26;;;;;;;28.63;14.90;;;;;;;;;;6164251;23;20029;-79
2024/01/10 13:28:52;;;;;;;28.02;13.60;;;;;;;;;;6163939;23;20025;-80
2024/01/10 13:31:19;;;;;;;28.45;13.80;;;;;;;;;;6160953;23;20025;-80
2024/01/10 13:33:57;;;;;;;32.40;13.88;;;;;;;;;;6161904;23;20362;-80
2024/01/10 13:36:34;;;;;;;29.55;13.80;;;;;;;;;;6161704;23;20018;-80
2024/01/10 13:39:00;;;;;;;28.27;13.90;;;;;;;;;;6161065;23;20026;-80
2024/01/10 13:41:34;;;;;;;25.42;12.90;;;;;;;;;;6161938;23;20045;-79
2024/01/10 13:44:08;;;;;;;29.02;13.98;;;;;;;;;;6161427;23;20163;-80
2024/01/10 13:46:54;;;;;;;28.48;14.45;;;;;;;;;;6161573;23;20029;-80
2024/01/10 13:49:22;;;;;;;29.70;13.68;;;;;;;;;;6161641;23;20031;-80
2024/01/10 13:51:55;;;;;;;30.55;15.45;;;;;;;;;;6162952;23;20025;-81
2024/01/10 13:54:22;;;;;;;29.95;14.63;;;;;;;;;;6162324;23;20027;-80
2024/01/10 13:56:49;;;;;;;25.92;13.25;;;;;;;;;;6162381;23;20022;-80
2024/01/10 13:59:16;;;;;;;27.25;14.82;;;;;;;;;;6162397;23;20031;-80
2024/01/10 14:02:08;;;;;;;26.92;13.23;;;;;;;;;;6161578;23;20092;-81
2024/01/10 14:04:38;;;;;;;30.13;14.38;;;;;;;;;;6147105;23;20057;-80
2024/01/10 14:07:18;;;;;;;29.02;14.00;;;;;;;;;;6162854;23;20028;-80
2024/01/10 14:09:45;;;;;;;30.45;13.45;;;;;;;;;;6162503;23;20030;-82
2024/01/10 14:12:16;;;;;;;28.08;13.77;;;;;;;;;;6165095;23;20093;-80
2024/01/10 14:14:45;;;;;;;29.05;12.38;;;;;;;;;;6164291;23;20082;-81
2024/01/10 14:17:20;;;;;;;40.75;14.45;;;;;;;;;;6164461;23;20319;-81
2024/01/10 14:19:51;;;;;;;27.58;14.35;;;;;;;;;;6165885;23;20022;-81
2024/01/10 14:22:25;;;;;;;24.73;13.90;;;;;;;;;;6167741;23;20051;-81
2024/01/10 14:24:59;;;;;;;29.95;14.15;;;;;;;;;;6169896;23;20100;-81
2024/01/10 14:27:26;;;;;;;27.08;13.18;;;;;;;;;;6162063;23;20028;-80
2024/01/10 14:29:59;;;;;;;29.35;14.50;;;;;;;;;;6161601;23;20073;-80
2024/01/10 14:32:29;;;;;;;26.38;14.18;;;;;;;;;;6163415;23;20025;-80
2024/01/10 14:35:00;;;;;;;32.53;14.45;;;;;;;;;;6164195;23;20048;-81
2024/01/10 14:37:29;;;;;;;29.70;13.90;;;;;;;;;;6163244;23;20032;-80
2024/01/10 14:40:12;;;;;;;27.75;14.27;;;;;;;;;;6164446;23;20025;-80
2024/01/10 14:42:46;;;;;;;26.95;14.13;;;;;;;;;;6140353;23;20013;-81
2024/01/10 14:45:22;;;;;;;29.83;13.88;;;;;;;;;;6162669;23;20030;-81
2024/01/10 14:47:49;;;;;;;27.00;13.07;;;;;;;;;;6163399;23;20021;-81
2024/01/10 14:50:16;;;;;;;28.95;14.35;;;;;;;;;;6165034;23;20041;-82
2024/01/10 14:52:45;;;;;;;30.95;14.55;;;;;;;;;;6164316;23;20018;-80